Time;durP1;ratioP1;P1;durP2;ratioP2;P2;SDS_P1;SDS_P2;PMS_P1;PMS_P2;Temp;Humidity;BMP_temperature;BMP_pressure;BME280_temperature;BME280_humidity;BME280_pressure;Samples;Min_cycle;Max_cycle;Signal;HPM_P1;HPM_P2
2022/06/06 00:02:04;;;;;;;6.97;6.47;;;15.90;99.90;;;;;;5066390;28;20040;-51
2022/06/06 00:04:30;;;;;;;7.03;6.43;;;15.90;99.90;;;;;;5063280;28;20143;-50
2022/06/06 00:06:58;;;;;;;6.55;6.05;;;15.90;99.90;;;;;;5065099;28;20127;-50
2022/06/06 00:09:25;;;;;;;5.50;5.10;;;15.90;99.90;;;;;;5065877;28;20040;-50
2022/06/06 00:11:50;;;;;;;5.85;5.45;;;15.90;99.90;;;;;;5063605;28;21245;-52
2022/06/06 00:14:17;;;;;;;5.95;5.45;;;15.90;99.90;;;;;;5066254;28;20040;-50
2022/06/06 00:16:43;;;;;;;5.45;5.05;;;15.80;99.90;;;;;;5064012;28;21274;-49
2022/06/06 00:19:10;;;;;;;5.65;5.05;;;15.90;99.90;;;;;;5066279;28;20032;-49
2022/06/06 00:21:37;;;;;;;5.28;4.78;;;15.80;99.90;;;;;;5065178;28;20052;-50
2022/06/06 00:24:03;;;;;;;5.15;4.75;;;15.80;99.90;;;;;;5065566;28;20037;-49
2022/06/06 00:26:31;;;;;;;5.00;4.57;;;15.80;99.90;;;;;;5063750;28;20040;-51
2022/06/06 00:28:57;;;;;;;5.00;4.50;;;15.80;99.90;;;;;;5063921;28;20421;-49
2022/06/06 00:37:00;;;;;;;5.47;4.97;;;15.70;99.90;;;;;;5064890;28;20055;-48
2022/06/06 00:39:26;;;;;;;5.47;5.07;;;15.70;99.90;;;;;;5064968;28;20033;-49
2022/06/06 00:41:54;;;;;;;5.72;5.20;;;15.70;99.90;;;;;;5064949;28;20560;-50
2022/06/06 00:44:27;;;;;;;6.30;5.70;;;15.70;99.90;;;;;;5060786;28;20044;-52
2022/06/06 00:47:13;;;;;;;6.95;6.45;;;15.70;99.90;;;;;;5062403;28;20048;-51
2022/06/06 00:49:50;;;;;;;8.57;7.07;;;15.70;99.90;;;;;;5061351;28;20436;-53
2022/06/06 00:52:37;;;;;;;8.10;7.40;;;15.70;99.90;;;;;;5062816;28;20055;-54
2022/06/06 00:55:17;;;;;;;8.20;7.40;;;15.70;99.90;;;;;;5064711;28;20057;-52
2022/06/06 00:57:46;;;;;;;10.75;9.75;;;15.70;99.90;;;;;;5058592;28;20047;-54
2022/06/06 01:00:16;;;;;;;12.30;11.20;;;15.70;99.90;;;;;;5061654;28;20653;-54
2022/06/06 01:02:45;;;;;;;12.40;11.02;;;15.80;99.90;;;;;;5066618;28;20082;-53
2022/06/06 01:05:11;;;;;;;13.13;11.93;;;15.70;99.90;;;;;;5063923;28;20040;-54
2022/06/06 01:07:37;;;;;;;13.82;12.50;;;15.80;99.90;;;;;;5063279;28;20040;-54
2022/06/06 01:10:04;;;;;;;16.17;14.60;;;15.70;99.90;;;;;;5064307;28;20048;-53
2022/06/06 01:12:32;;;;;;;17.67;15.97;;;15.70;99.90;;;;;;5064097;28;20044;-54
2022/06/06 01:15:02;;;;;;;16.85;15.15;;;15.70;99.90;;;;;;5064791;28;20036;-49
2022/06/06 01:17:39;;;;;;;17.98;16.27;;;15.70;99.90;;;;;;5063186;28;20056;-50
2022/06/06 01:20:12;;;;;;;17.27;15.57;;;15.70;99.90;;;;;;5062570;28;20052;-53
2022/06/06 01:23:04;;;;;;;18.35;16.55;;;15.70;99.90;;;;;;5061772;28;20364;-54
2022/06/06 01:25:42;;;;;;;20.38;18.38;;;15.70;99.90;;;;;;5062081;28;20106;-51
2022/06/06 01:28:17;;;;;;;19.13;17.13;;;15.70;99.90;;;;;;5063157;28;20441;-50
2022/06/06 01:30:48;;;;;;;18.73;16.63;;;15.70;99.90;;;;;;5064351;28;20116;-50
2022/06/06 01:33:14;;;;;;;20.60;17.10;;;15.60;99.90;;;;;;5063905;28;20105;-50
2022/06/06 01:35:45;;;;;;;16.95;15.23;;;15.60;99.90;;;;;;5062511;28;20116;-51
2022/06/06 01:38:13;;;;;;;20.98;16.70;;;15.60;99.90;;;;;;5060117;28;20037;-49
2022/06/06 01:40:42;;;;;;;18.05;16.05;;;15.50;99.90;;;;;;5059357;28;20039;-49
2022/06/06 01:43:28;;;;;;;18.63;16.63;;;15.50;99.90;;;;;;5062839;28;20047;-51
2022/06/06 01:46:11;;;;;;;21.08;18.65;;;15.40;99.90;;;;;;5064712;28;20036;-50
2022/06/06 01:48:41;;;;;;;22.20;19.52;;;15.40;99.90;;;;;;5061782;28;20414;-53
2022/06/06 01:51:09;;;;;;;24.23;20.20;;;15.40;99.90;;;;;;5085464;22;20548;-88
2022/06/06 01:53:37;;;;;;;24.15;21.42;;;15.30;99.90;;;;;;5055019;28;20068;-89
2022/06/06 01:56:04;;;;;;;25.13;20.27;;;15.30;99.90;;;;;;5065965;28;20112;-89
2022/06/06 01:58:31;;;;;;;23.55;19.98;;;15.30;99.90;;;;;;5077443;28;21366;-88
2022/06/06 02:00:57;;;;;;;24.77;20.60;;;15.20;99.90;;;;;;5080178;28;20048;-88
2022/06/06 02:03:23;;;;;;;28.42;21.23;;;15.20;99.90;;;;;;5083701;28;20040;-88
2022/06/06 02:05:50;;;;;;;25.60;22.52;;;15.20;99.90;;;;;;5081974;28;20047;-89
2022/06/06 02:08:16;;;;;;;26.73;23.00;;;15.20;99.90;;;;;;5074501;28;20037;-88
2022/06/06 02:10:42;;;;;;;29.75;24.50;;;15.20;99.90;;;;;;5066432;28;20036;-88
2022/06/06 02:13:08;;;;;;;30.55;26.58;;;15.20;99.90;;;;;;5066564;28;20458;-88
2022/06/06 02:15:34;;;;;;;35.15;26.88;;;15.20;99.90;;;;;;5067104;28;20040;-89
2022/06/06 02:18:00;;;;;;;33.53;25.77;;;15.10;99.90;;;;;;5045679;28;20055;-90
2022/06/06 02:20:28;;;;;;;32.15;22.55;;;15.10;99.90;;;;;;5058356;28;20040;-92
2022/06/06 02:22:54;;;;;;;30.10;22.98;;;15.00;99.90;;;;;;5058986;28;20040;-90
2022/06/06 02:25:20;;;;;;;27.92;21.25;;;15.00;99.90;;;;;;5061751;28;20040;-90
2022/06/06 02:27:46;;;;;;;27.27;19.88;;;15.00;99.90;;;;;;5057856;28;20460;-90
2022/06/06 02:30:20;;;;;;;27.70;21.15;;;15.00;99.90;;;;;;5061990;28;20052;-90
2022/06/06 02:32:47;;;;;;;28.95;21.15;;;15.00;99.90;;;;;;5039560;28;20449;-90
2022/06/06 02:35:17;;;;;;;31.15;21.60;;;14.90;99.90;;;;;;5057271;28;20048;-91
2022/06/06 02:37:44;;;;;;;30.63;21.15;;;15.20;99.90;;;;;;5060309;28;20127;-92
2022/06/06 02:40:11;;;;;;;39.30;24.27;;;14.80;99.90;;;;;;5058258;28;20101;-91
2022/06/06 02:42:37;;;;;;;35.63;22.77;;;14.90;99.90;;;;;;5043631;28;20776;-91
2022/06/06 02:45:04;;;;;;;29.45;20.05;;;14.80;99.90;;;;;;5059455;28;20049;-90
2022/06/06 02:47:30;;;;;;;28.40;18.67;;;14.80;99.90;;;;;;5060142;28;20036;-90
2022/06/06 02:49:56;;;;;;;27.33;18.13;;;14.70;99.90;;;;;;5059210;28;20063;-89
2022/06/06 02:52:21;;;;;;;26.13;16.85;;;14.80;99.90;;;;;;5056739;28;20416;-89
2022/06/06 02:54:47;;;;;;;27.67;16.83;;;14.70;99.90;;;;;;5038355;28;20080;-89
2022/06/06 02:57:13;;;;;;;28.60;16.35;;;14.70;99.90;;;;;;5057883;28;20051;-89
2022/06/06 02:59:41;;;;;;;22.52;14.38;;;14.70;99.90;;;;;;5056633;28;20476;-90
2022/06/06 03:02:08;;;;;;;20.08;14.27;;;14.60;99.90;;;;;;5059028;28;20048;-88
2022/06/06 03:04:34;;;;;;;;;;;;;;;;;;5053337;28;20756;-87
2022/06/06 03:07:19;;;;;;;21.95;14.55;;;14.60;99.90;;;;;;5059339;28;19959;-88
2022/06/06 03:10:05;;;;;;;21.00;14.05;;;14.50;99.90;;;;;;5053728;28;20044;-89
2022/06/06 03:12:49;;;;;;;23.95;14.77;;;14.50;99.90;;;;;;5056830;28;20469;-89
2022/06/06 03:21:54;;;;;;;20.92;14.52;;;14.40;99.90;;;;;;5052687;28;20064;-89
2022/06/06 03:24:31;;;;;;;24.23;16.15;;;14.30;99.90;;;;;;5060280;28;20409;-90
2022/06/06 03:27:07;;;;;;;28.30;16.30;;;14.40;99.90;;;;;;5055775;28;20040;-88
2022/06/06 03:29:46;;;;;;;26.33;17.08;;;14.40;99.90;;;;;;5054945;28;20368;-89
2022/06/06 03:32:39;;;;;;;27.70;17.35;;;14.30;99.90;;;;;;5053416;28;20040;-89
2022/06/06 03:35:21;;;;;;;28.45;17.70;;;14.40;99.90;;;;;;5074706;28;20067;-88
2022/06/06 03:38:03;;;;;;;25.70;17.13;;;14.30;99.90;;;;;;5054574;28;20048;-89
2022/06/06 03:40:57;;;;;;;24.55;16.15;;;14.30;99.90;;;;;;5037365;28;20103;-89
2022/06/06 03:43:34;;;;;;;26.83;17.65;;;14.30;99.90;;;;;;5060081;28;20412;-88
2022/06/06 03:46:32;;;;;;;24.40;15.88;;;14.30;99.90;;;;;;5054958;28;20389;-89
2022/06/06 03:49:22;;;;;;;25.55;15.80;;;14.20;99.90;;;;;;5011386;28;20053;-89
2022/06/06 03:51:47;;;;;;;23.75;15.68;;;14.30;99.90;;;;;;4994694;28;20053;-90
2022/06/06 03:54:31;;;;;;;25.77;15.65;;;14.20;99.90;;;;;;4990325;28;20072;-89
2022/06/06 03:57:09;;;;;;;24.63;15.68;;;14.20;99.90;;;;;;4996751;28;20068;-90
2022/06/06 03:59:37;;;;;;;22.20;14.75;;;14.20;99.90;;;;;;5010455;28;20144;-90
2022/06/06 04:02:04;;;;;;;;;;;14.20;99.90;;;;;;5002124;28;20041;-89
2022/06/06 04:04:31;;;;;;;20.58;14.95;;;14.20;99.90;;;;;;5002877;28;19933;-90
2022/06/06 04:06:58;;;;;;;23.52;14.45;;;14.20;99.90;;;;;;5002150;28;20143;-89
2022/06/06 04:09:27;;;;;;;22.42;16.20;;;14.20;99.90;;;;;;5003523;28;20045;-89
2022/06/06 04:12:01;;;;;;;24.02;15.70;;;14.30;99.90;;;;;;5013777;28;20600;-89
2022/06/06 04:14:44;;;;;;;23.88;15.32;;;14.30;99.90;;;;;;5002230;28;20173;-90
2022/06/06 04:17:30;;;;;;;22.65;15.80;;;14.30;99.90;;;;;;5019024;28;20076;-90
2022/06/06 04:20:26;;;;;;;21.58;14.95;;;14.30;99.90;;;;;;5002005;28;20734;-89
2022/06/06 04:23:05;;;;;;;19.02;14.35;;;14.30;99.90;;;;;;5000966;28;20088;-89
2022/06/06 04:25:36;;;;;;;20.08;15.13;;;14.30;99.90;;;;;;5017974;28;20055;-89
2022/06/06 04:28:23;;;;;;;23.95;16.58;;;14.20;99.90;;;;;;5061047;28;20051;-89
2022/06/06 04:31:04;;;;;;;20.88;15.35;;;14.30;99.90;;;;;;5059838;28;20048;-88
2022/06/06 04:34:00;;;;;;;21.40;14.93;;;14.30;99.90;;;;;;5062041;28;20041;-89
2022/06/06 04:36:31;;;;;;;21.05;14.88;;;14.30;99.90;;;;;;5060629;28;20044;-87
2022/06/06 04:39:20;;;;;;;23.83;15.10;;;14.30;99.90;;;;;;5058299;28;20055;-89
2022/06/06 04:42:01;;;;;;;21.60;14.50;;;14.30;99.90;;;;;;5051313;28;20048;-89
2022/06/06 04:44:59;;;;;;;18.83;13.70;;;14.30;99.90;;;;;;5057466;28;20074;-88
2022/06/06 04:47:37;;;;;;;21.38;13.75;;;14.30;99.90;;;;;;5058425;28;20104;-88
2022/06/06 04:50:04;;;;;;;;;;;14.40;99.90;;;;;;5059821;28;20045;-88
2022/06/06 04:52:32;;;;;;;18.73;13.40;;;14.30;99.90;;;;;;5057139;28;20395;-89
2022/06/06 04:54:59;;;;;;;16.17;12.75;;;14.40;99.90;;;;;;5059020;28;20207;-89
2022/06/06 04:57:26;;;;;;;15.90;12.73;;;14.40;99.90;;;;;;5059600;28;20053;-89
2022/06/06 04:59:56;;;;;;;16.43;12.97;;;14.40;99.90;;;;;;5061675;28;20072;-89
2022/06/06 05:02:22;;;;;;;16.08;12.52;;;14.40;99.90;;;;;;5058534;28;20144;-89
2022/06/06 05:04:48;;;;;;;20.88;14.75;;;14.40;99.90;;;;;;5059246;28;20501;-90
2022/06/06 05:07:13;;;;;;;20.65;15.15;;;14.40;99.90;;;;;;5057892;28;20040;-88
2022/06/06 05:09:46;;;;;;;20.92;15.68;;;14.40;99.90;;;;;;5061860;28;20559;-88
2022/06/06 05:12:11;;;;;;;22.42;16.63;;;14.40;99.90;;;;;;5059109;28;20055;-88
2022/06/06 05:14:48;;;;;;;23.73;16.80;;;14.40;99.90;;;;;;5062591;28;20037;-89
2022/06/06 05:17:32;;;;;;;22.38;15.90;;;14.40;99.90;;;;;;5060461;28;20445;-88
2022/06/06 05:20:06;;;;;;;22.27;16.25;;;14.40;99.90;;;;;;5058906;28;20045;-88
2022/06/06 05:22:38;;;;;;;22.45;16.55;;;14.30;99.90;;;;;;5056644;28;20048;-88
2022/06/06 05:25:38;;;;;;;22.05;16.27;;;14.30;99.90;;;;;;5037675;28;20041;-89
2022/06/06 05:28:57;;;;;;;25.65;17.10;;;14.40;99.90;;;;;;5055397;28;20572;-88
2022/06/06 05:31:50;;;;;;;21.80;15.85;;;14.50;99.90;;;;;;5056023;28;20057;-89
2022/06/06 05:34:31;;;;;;;20.23;15.55;;;14.50;99.90;;;;;;5039999;28;20080;-88
2022/06/06 05:37:15;;;;;;;22.10;16.38;;;14.50;99.90;;;;;;5061160;28;20044;-88
2022/06/06 05:39:43;;;;;;;24.30;16.88;;;14.50;99.90;;;;;;5057078;28;20036;-88
2022/06/06 05:42:47;;;;;;;18.90;15.93;;;14.60;99.90;;;;;;5059320;28;20040;-89
2022/06/06 05:45:42;;;;;;;19.48;15.65;;;14.70;99.90;;;;;;5056625;28;20481;-88
2022/06/06 05:48:34;;;;;;;21.73;15.23;;;14.70;99.90;;;;;;5059505;28;20041;-88
2022/06/06 05:51:03;;;;;;;18.65;14.73;;;14.80;99.90;;;;;;5059747;28;20110;-88
2022/06/06 05:54:04;;;;;;;19.42;14.75;;;14.80;99.90;;;;;;5057127;28;20048;-88
2022/06/06 05:56:38;;;;;;;20.08;15.65;;;14.80;99.90;;;;;;5004911;28;20049;-88
2022/06/06 05:59:53;;;;;;;20.45;15.27;;;14.80;99.90;;;;;;5025864;28;20120;-88
2022/06/06 06:02:46;;;;;;;19.23;14.35;;;14.90;99.90;;;;;;4986486;28;20049;-87
2022/06/06 06:05:23;;;;;;;20.13;14.55;;;15.00;99.90;;;;;;5030672;28;20069;-86
2022/06/06 06:08:08;;;;;;;21.55;15.40;;;15.20;99.90;;;;;;5030785;28;20052;-87
2022/06/06 06:10:39;;;;;;;18.35;14.30;;;15.30;99.90;;;;;;5033557;28;20049;-87
2022/06/06 06:13:42;;;;;;;19.67;14.63;;;15.50;99.90;;;;;;5007291;28;20913;-88
2022/06/06 06:16:10;;;;;;;21.23;15.23;;;15.50;99.90;;;;;;5024232;28;20041;-88
2022/06/06 06:18:56;;;;;;;19.25;14.55;;;15.60;99.90;;;;;;5005810;28;20049;-88
2022/06/06 06:21:29;;;;;;;20.88;14.73;;;15.50;99.90;;;;;;5007995;28;20054;-89
2022/06/06 06:24:03;;;;;;;20.33;14.23;;;15.50;99.90;;;;;;4984725;28;20574;-89
2022/06/06 06:26:30;;;;;;;18.88;13.95;;;15.60;99.90;;;;;;5005346;28;20042;-90
2022/06/06 06:29:01;;;;;;;18.63;14.50;;;15.50;99.90;;;;;;5020881;28;20139;-90
2022/06/06 06:31:51;;;;;;;20.13;14.68;;;15.50;99.90;;;;;;5055893;28;20056;-89
2022/06/06 06:34:26;;;;;;;19.15;14.73;;;15.50;99.90;;;;;;5052807;28;20456;-89
2022/06/06 06:37:06;;;;;;;24.67;15.20;;;15.50;99.90;;;;;;5053815;28;20558;-89
2022/06/06 06:39:53;;;;;;;18.02;14.35;;;15.50;99.90;;;;;;5034495;28;20561;-90
2022/06/06 06:42:44;;;;;;;18.98;14.30;;;15.50;99.90;;;;;;5059511;28;20037;-88
2022/06/06 06:45:13;;;;;;;19.23;14.50;;;15.50;99.90;;;;;;5032191;28;20059;-86
2022/06/06 06:47:40;;;;;;;19.70;15.13;;;15.50;99.90;;;;;;5056962;28;20501;-86
2022/06/06 06:50:16;;;;;;;22.73;15.93;;;15.50;99.90;;;;;;5035052;28;20052;-88
2022/06/06 06:53:13;;;;;;;19.25;15.15;;;15.50;99.90;;;;;;5038731;28;20150;-86
2022/06/06 06:56:04;;;;;;;23.83;16.13;;;15.40;99.90;;;;;;5058966;28;20048;-89
2022/06/06 06:58:48;;;;;;;18.95;15.60;;;15.30;99.90;;;;;;5051914;28;20037;-88
2022/06/06 07:11:30;;;;;;;24.08;17.67;;;16.20;99.90;;;;;;5033482;28;20049;-87
2022/06/06 07:14:41;;;;;;;27.90;17.58;;;17.10;99.90;;;;;;4986411;28;20489;-89
2022/06/06 07:17:09;;;;;;;25.58;18.23;;;17.90;99.90;;;;;;4985471;28;20056;-89
2022/06/06 07:19:42;;;;;;;24.50;17.77;;;18.20;99.90;;;;;;5015046;28;20446;-88
2022/06/06 07:22:10;;;;;;;25.35;17.85;;;18.40;99.90;;;;;;5020236;28;20052;-89
2022/06/06 07:24:38;;;;;;;25.40;17.95;;;18.80;99.90;;;;;;5036223;28;20118;-89
2022/06/06 07:27:05;;;;;;;31.73;19.00;;;18.50;99.90;;;;;;5020915;28;20056;-91
2022/06/06 07:29:32;;;;;;;22.75;17.55;;;18.80;99.90;;;;;;5036151;28;20040;-91
2022/06/06 07:32:01;;;;;;;19.75;15.07;;;19.40;99.90;;;;;;5022889;28;20056;-93
2022/06/06 07:34:59;;;;;;;18.23;14.65;;;19.80;99.90;;;;;;5038171;28;20095;-91
2022/06/06 07:37:36;;;;;;;14.95;12.60;;;20.40;99.90;;;;;;5037877;28;20052;-91
2022/06/06 07:40:34;;;;;;;15.30;12.30;;;20.10;99.90;;;;;;5045755;28;20513;-92
2022/06/06 07:43:06;;;;;;;15.38;12.60;;;19.20;99.90;;;;;;5059013;28;20051;-91
2022/06/06 07:45:43;;;;;;;16.45;12.57;;;18.50;99.90;;;;;;5057116;28;20461;-91
2022/06/06 07:48:46;;;;;;;11.75;10.50;;;18.40;99.90;;;;;;5054162;28;20044;-89
2022/06/06 07:51:44;;;;;;;10.48;8.30;;;18.50;99.90;;;;;;5059078;28;20048;-91
2022/06/06 07:54:25;;;;;;;13.23;9.15;;;18.90;99.90;;;;;;5056103;28;20517;-89
2022/06/06 07:56:55;;;;;;;11.15;8.85;;;19.20;99.90;;;;;;5037885;28;20094;-89
2022/06/06 07:59:49;;;;;;;8.15;6.45;;;18.80;99.90;;;;;;5058301;28;20052;-91
2022/06/06 08:02:46;;;;;;;9.68;6.80;;;18.50;99.90;;;;;;5056545;28;20044;-90
2022/06/06 08:05:34;;;;;;;6.25;5.50;;;18.50;99.90;;;;;;5057699;28;20537;-89
2022/06/06 08:08:06;;;;;;;8.20;5.15;;;18.70;99.90;;;;;;5065157;28;20033;-95
2022/06/06 08:10:42;;;;;;;8.23;4.65;;;19.00;99.90;;;;;;5062671;28;20350;-91
2022/06/06 08:13:28;;;;;;;7.20;4.50;;;19.30;99.90;;;;;;5067819;28;20028;-93
2022/06/06 08:16:07;;;;;;;6.80;3.95;;;19.30;99.90;;;;;;5062708;28;20040;-92
2022/06/06 08:18:45;;;;;;;6.38;4.18;;;19.80;99.90;;;;;;5048697;28;20160;-91
2022/06/06 08:21:34;;;;;;;5.45;3.65;;;20.20;99.90;;;;;;5049694;28;20036;-91
2022/06/06 08:24:05;;;;;;;5.65;3.50;;;19.60;99.90;;;;;;5057790;28;20041;-92
2022/06/06 08:26:36;;;;;;;7.25;3.40;;;19.30;99.90;;;;;;5065883;28;20036;-91
2022/06/06 08:29:05;;;;;;;7.05;2.90;;;18.80;99.90;;;;;;5070771;28;20037;-90
2022/06/06 08:31:31;;;;;;;6.35;3.17;;;18.50;99.90;;;;;;5054189;28;20094;-90
2022/06/06 08:33:57;;;;;;;3.80;3.33;;;18.60;99.90;;;;;;5054660;28;20056;-90
2022/06/06 08:36:57;;;;;;;3.92;2.88;;;18.40;99.90;;;;;;5065268;28;20029;-92
2022/06/06 08:40:17;;;;;;;7.40;3.20;;;18.10;99.90;;;;;;5069118;28;20057;-93
2022/06/06 08:43:13;;;;;;;5.28;2.40;;;18.60;99.90;;;;;;5021903;28;20038;-93
2022/06/06 08:45:42;;;;;;;3.63;2.47;;;18.80;99.90;;;;;;5024924;28;20061;-94
2022/06/06 08:48:19;;;;;;;4.82;2.55;;;18.40;99.90;;;;;;5021218;28;20121;-93
2022/06/06 08:51:02;;;;;;;6.47;2.50;;;18.70;99.90;;;;;;5024337;28;20505;-94
2022/06/06 08:53:58;;;;;;;4.25;2.67;;;19.10;99.90;;;;;;5010229;28;20132;-93
2022/06/06 08:56:53;;;;;;;4.03;2.60;;;19.20;99.90;;;;;;5007862;28;20152;-94
2022/06/06 08:59:55;;;;;;;4.88;1.95;;;19.00;99.90;;;;;;5033821;28;20079;-94
2022/06/06 09:02:56;;;;;;;3.88;2.17;;;18.90;99.90;;;;;;5031973;28;20163;-95
2022/06/06 09:05:40;;;;;;;4.70;2.05;;;18.50;99.90;;;;;;4995433;28;20050;-94
2022/06/06 09:08:43;;;;;;;4.53;2.08;;;18.50;99.90;;;;;;5007502;28;20048;-89
2022/06/06 09:11:35;;;;;;;4.65;1.90;;;18.90;99.90;;;;;;5031664;28;20123;-95
2022/06/06 09:14:18;;;;;;;4.97;1.80;;;18.90;99.90;;;;;;5012756;28;20053;-96
2022/06/06 09:16:53;;;;;;;7.13;2.05;;;18.90;99.90;;;;;;5021847;28;20048;-96
2022/06/06 09:19:31;;;;;;;3.20;1.90;;;18.90;99.90;;;;;;5053445;28;20049;-94
2022/06/06 09:21:57;;;;;;;6.32;2.22;;;18.80;99.90;;;;;;5064397;28;20055;-95
2022/06/06 09:24:22;;;;;;;5.43;2.60;;;19.20;99.90;;;;;;5069991;28;20048;-95
2022/06/06 09:27:06;;;;;;;5.07;2.65;;;19.50;99.90;;;;;;5065358;28;20049;-94
2022/06/06 09:29:59;;;;;;;4.68;2.30;;;19.70;99.90;;;;;;5066490;28;20033;-96
2022/06/06 09:32:40;;;;;;;5.15;2.65;;;19.80;99.90;;;;;;5057115;28;20105;-94
2022/06/06 09:35:38;;;;;;;4.10;2.17;;;20.10;99.90;;;;;;5067144;28;20032;-93
2022/06/06 09:38:33;;;;;;;2.97;2.20;;;20.60;99.90;;;;;;5056441;28;20049;-94
2022/06/06 09:41:22;;;;;;;3.85;2.17;;;20.20;99.90;;;;;;5055691;28;20048;-96
2022/06/06 09:43:55;;;;;;;6.55;2.28;;;19.70;99.90;;;;;;5052073;28;20509;-93
2022/06/06 09:46:45;;;;;;;4.50;1.55;;;19.60;99.90;;;;;;5057204;28;20081;-94
2022/06/06 09:49:41;;;;;;;4.30;1.80;;;19.30;99.90;;;;;;5043625;28;20060;-93
2022/06/06 09:52:20;;;;;;;3.58;1.75;;;19.00;99.90;;;;;;5048155;28;20048;-94
2022/06/06 10:02:04;;;;;;;4.97;2.67;;;20.10;99.90;;;;;;5057845;28;20494;-93
2022/06/06 10:05:21;;;;;;;3.47;2.00;;;20.30;99.90;;;;;;5069151;28;20081;-94
2022/06/06 10:08:01;;;;;;;;;;;20.30;99.90;;;;;;5060260;28;20153;-96
2022/06/06 10:10:45;;;;;;;2.55;1.88;;;20.20;99.90;;;;;;5049836;28;19920;-94
2022/06/06 10:13:35;;;;;;;3.78;1.63;;;20.30;99.90;;;;;;5069561;28;20050;-92
2022/06/06 10:16:21;;;;;;;8.05;2.30;;;20.50;99.90;;;;;;5050179;28;20033;-93
2022/06/06 10:18:55;;;;;;;4.72;1.80;;;20.40;99.90;;;;;;5064416;28;20062;-95
2022/06/06 10:21:50;;;;;;;5.72;1.70;;;20.60;99.90;;;;;;5050050;28;20040;-93
2022/06/06 10:24:48;;;;;;;4.00;1.50;;;20.60;99.90;;;;;;5063928;28;20059;-94
2022/06/06 10:27:32;;;;;;;2.25;1.42;;;20.90;99.90;;;;;;5040288;28;20060;-93
2022/06/06 10:30:12;;;;;;;1.67;1.20;;;20.40;99.90;;;;;;5065097;28;20092;-94
2022/06/06 10:32:56;;;;;;;2.80;1.20;;;20.40;99.90;;;;;;5053025;28;20129;-94
2022/06/06 10:35:33;;;;;;;3.50;1.20;;;20.90;99.90;;;;;;5049470;28;20068;-94
2022/06/06 10:38:18;;;;;;;2.47;0.90;;;21.10;99.90;;;;;;5070627;28;20036;-94
2022/06/06 10:41:01;;;;;;;1.98;0.98;;;21.40;99.90;;;;;;5069775;28;20055;-95
2022/06/06 10:43:56;;;;;;;4.80;1.08;;;21.70;99.90;;;;;;5076671;28;20037;-94
2022/06/06 10:46:40;;;;;;;2.53;1.10;;;21.60;99.90;;;;;;5058631;28;20059;-89
2022/06/06 10:49:27;;;;;;;1.10;0.80;;;21.60;99.90;;;;;;5082095;28;20032;-91
2022/06/06 10:52:17;;;;;;;2.40;1.00;;;21.60;99.90;;;;;;5084045;28;20053;-92
2022/06/06 10:55:08;;;;;;;2.95;0.90;;;21.60;99.90;;;;;;5071373;28;20193;-91
2022/06/06 10:58:07;;;;;;;3.03;0.95;;;21.30;99.90;;;;;;5073471;28;20108;-95
2022/06/06 11:01:02;;;;;;;2.92;0.88;;;21.40;99.90;;;;;;5040919;28;20081;-96
2022/06/06 11:03:49;;;;;;;3.47;0.75;;;;;;;;;;5054395;28;20048;-95
2022/06/06 11:06:33;;;;;;;3.63;0.88;;;22.00;99.90;;;;;;5073343;28;20550;-95
2022/06/06 11:09:31;;;;;;;2.97;0.80;;;22.30;99.90;;;;;;5050514;28;20043;-95
2022/06/06 11:12:18;;;;;;;4.93;0.90;;;22.30;99.40;;;;;;5014436;28;20048;-94
2022/06/06 11:14:44;;;;;;;1.88;0.75;;;22.00;99.90;;;;;;5038336;28;20101;-95
2022/06/06 11:17:36;;;;;;;2.40;0.70;;;22.40;99.90;;;;;;5042517;28;20041;-95
2022/06/06 11:20:20;;;;;;;1.30;0.68;;;22.40;99.00;;;;;;5064062;28;20068;-94
2022/06/06 11:23:21;;;;;;;3.40;0.80;;;22.00;98.80;;;;;;5063017;28;20044;-94
2022/06/06 11:26:16;;;;;;;1.80;0.70;;;22.70;99.90;;;;;;5055986;28;20047;-95
2022/06/06 11:29:00;;;;;;;1.98;1.00;;;22.60;99.20;;;;;;5061966;28;20047;-93
2022/06/06 11:32:24;;;;;;;2.75;0.80;;;22.50;98.10;;;;;;5056809;28;20186;-93
2022/06/06 11:35:12;;;;;;;3.97;1.10;;;22.60;96.30;;;;;;4982549;28;20049;-93
2022/06/06 11:37:43;;;;;;;2.75;0.93;;;23.00;99.90;;;;;;4987164;28;20061;-94
2022/06/06 11:40:37;;;;;;;2.50;0.80;;;22.90;98.10;;;;;;4969056;28;20050;-96
2022/06/06 11:43:27;;;;;;;2.35;0.88;;;22.50;96.70;;;;;;4990754;28;20139;-95
2022/06/06 11:46:01;;;;;;;2.35;0.90;;;22.00;97.50;;;;;;5005144;28;20120;-92
2022/06/06 11:49:03;;;;;;;4.70;1.00;;;21.70;99.10;;;;;;4975926;28;20046;-94
2022/06/06 11:51:35;;;;;;;1.40;0.80;;;21.70;98.00;;;;;;5002972;28;20076;-93
2022/06/06 11:54:31;;;;;;;4.80;1.30;;;22.20;98.30;;;;;;4972911;28;20116;-91
2022/06/06 11:57:12;;;;;;;1.17;0.75;;;21.90;96.40;;;;;;4995625;28;20539;-92
2022/06/06 12:00:28;;;;;;;1.52;0.80;;;21.60;97.10;;;;;;4980093;28;20059;-94
2022/06/06 12:03:15;;;;;;;5.75;0.80;;;21.20;99.20;;;;;;4958873;28;20046;-94
2022/06/06 12:06:00;;;;;;;3.35;0.70;;;21.00;99.90;;;;;;5019533;28;20048;-94
2022/06/06 12:08:47;;;;;;;1.35;0.70;;;21.00;99.90;;;;;;5044665;28;20048;-92
2022/06/06 12:11:19;;;;;;;2.97;0.60;;;21.00;99.90;;;;;;5041489;28;20033;-90
2022/06/06 12:14:11;;;;;;;1.70;0.65;;;21.10;99.90;;;;;;5048383;28;20055;-89
2022/06/06 12:16:58;;;;;;;2.13;0.95;;;21.00;99.90;;;;;;5043177;28;20044;-92
2022/06/06 12:19:52;;;;;;;0.98;0.43;;;20.80;99.90;;;;;;5064302;28;20409;-90
2022/06/06 12:22:52;;;;;;;8.73;1.80;;;20.40;99.90;;;;;;5066168;28;20041;-89
2022/06/06 12:25:46;;;;;;;2.40;0.93;;;18.40;99.90;;;;;;5066514;28;20041;-92
2022/06/06 12:28:45;;;;;;;2.97;1.35;;;18.10;99.90;;;;;;5044501;28;20048;-90
2022/06/06 12:31:28;;;;;;;4.32;1.55;;;17.90;99.90;;;;;;5064122;28;20048;-90
2022/06/06 12:33:58;;;;;;;3.22;1.30;;;17.80;99.90;;;;;;5063833;28;20060;-90
2022/06/06 12:36:47;;;;;;;2.97;1.25;;;18.00;99.90;;;;;;5050310;28;20065;-91
2022/06/06 12:39:28;;;;;;;2.08;1.23;;;18.20;99.90;;;;;;5066247;28;20131;-90
2022/06/06 12:42:13;;;;;;;3.22;1.17;;;18.30;99.90;;;;;;5053098;28;20045;-90
2022/06/06 12:44:57;;;;;;;1.98;1.30;;;18.50;99.90;;;;;;5061157;28;20123;-89
2022/06/06 12:47:37;;;;;;;2.05;1.20;;;18.70;99.90;;;;;;5071723;28;20044;-90
2022/06/06 12:50:25;;;;;;;2.15;0.90;;;18.80;99.90;;;;;;5071757;28;20098;-90
2022/06/06 12:53:12;;;;;;;3.22;0.93;;;18.80;99.90;;;;;;5062757;28;20048;-92
2022/06/06 12:56:17;;;;;;;2.67;1.50;;;18.90;99.90;;;;;;5057963;28;20044;-92
2022/06/06 12:59:20;;;;;;;2.45;1.38;;;18.80;99.90;;;;;;5059083;28;20044;-90
2022/06/06 13:02:17;;;;;;;3.38;1.60;;;18.60;99.90;;;;;;5053770;28;20037;-91
2022/06/06 13:04:58;;;;;;;2.83;1.40;;;18.50;99.90;;;;;;5053150;28;20037;-90
2022/06/06 13:08:00;;;;;;;2.88;2.30;;;18.50;99.90;;;;;;5051967;28;20036;-90
2022/06/06 13:10:56;;;;;;;2.15;1.83;;;18.50;99.90;;;;;;5041531;28;20078;-90
2022/06/06 13:13:44;;;;;;;1.87;1.43;;;18.50;99.90;;;;;;5051702;28;20597;-90
2022/06/06 13:16:34;;;;;;;1.55;1.10;;;18.70;99.90;;;;;;5038315;28;20040;-90
2022/06/06 13:19:25;;;;;;;2.80;1.25;;;18.90;99.90;;;;;;5037233;28;20139;-90
2022/06/06 13:21:54;;;;;;;1.65;1.20;;;19.20;99.90;;;;;;5037579;28;20497;-90
2022/06/06 13:24:57;;;;;;;0.95;0.68;;;19.50;99.90;;;;;;5056376;28;20048;-90
2022/06/06 13:27:52;;;;;;;2.13;0.80;;;19.50;99.90;;;;;;5052439;28;20402;-90
2022/06/06 13:30:27;;;;;;;0.70;0.70;;;19.50;99.90;;;;;;5028565;28;20086;-91
2022/06/06 13:33:18;;;;;;;0.90;0.70;;;19.60;99.90;;;;;;5052688;28;20127;-90
2022/06/06 13:35:43;;;;;;;1.58;0.60;;;19.50;99.90;;;;;;5055004;28;20091;-90
2022/06/06 13:38:24;;;;;;;0.60;0.60;;;19.60;99.90;;;;;;5054155;28;20087;-91
2022/06/06 13:41:03;;;;;;;1.42;0.70;;;19.40;99.90;;;;;;5057277;28;20037;-90
2022/06/06 13:43:50;;;;;;;0.95;0.73;;;19.40;99.90;;;;;;5036667;28;20102;-90
2022/06/06 13:46:25;;;;;;;2.37;0.70;;;19.10;99.90;;;;;;5053817;28;20103;-90
2022/06/06 13:49:11;;;;;;;0.80;0.73;;;19.00;99.90;;;;;;5057586;28;20083;-91
2022/06/06 13:52:06;;;;;;;2.53;1.10;;;18.90;99.90;;;;;;5052062;28;20132;-89
2022/06/06 13:54:31;;;;;;;2.10;1.52;;;18.40;99.90;;;;;;5050919;28;21552;-89
2022/06/06 13:57:24;;;;;;;2.72;1.70;;;18.30;99.90;;;;;;5048134;28;20051;-90
2022/06/06 14:00:19;;;;;;;3.42;1.60;;;18.10;99.90;;;;;;5057287;28;20040;-90
2022/06/06 14:03:12;;;;;;;3.22;2.08;;;17.90;99.90;;;;;;5038284;28;20044;-90
2022/06/06 14:06:10;;;;;;;2.20;2.00;;;17.80;99.90;;;;;;5038316;28;20130;-90
2022/06/06 14:08:46;;;;;;;3.53;2.88;;;17.70;99.90;;;;;;4992534;28;20041;-90
2022/06/06 14:11:13;;;;;;;2.97;2.60;;;17.60;99.90;;;;;;4991775;28;20045;-91
2022/06/06 14:13:46;;;;;;;3.60;2.97;;;17.40;99.90;;;;;;4979181;28;20490;-89
2022/06/06 14:16:16;;;;;;;3.33;3.08;;;17.50;99.90;;;;;;5000786;28;20049;-90